createdAt,value
2023-04-20T00:01:02.614Z,99.90
2023-04-20T00:03:29.558Z,99.90
2023-04-20T00:05:56.405Z,99.90
2023-04-20T00:08:23.322Z,99.90
2023-04-20T00:10:50.250Z,99.90
2023-04-20T00:13:17.055Z,99.90
2023-04-20T00:15:43.994Z,99.90
2023-04-20T00:18:11.072Z,99.90
2023-04-20T00:20:38.584Z,99.90
2023-04-20T00:23:05.462Z,99.90
2023-04-20T00:25:32.381Z,99.90
2023-04-20T00:28:00.364Z,99.90
2023-04-20T00:30:27.205Z,99.90
2023-04-20T00:32:54.046Z,99.90
2023-04-20T00:35:21.089Z,99.90
2023-04-20T00:37:47.994Z,99.90
2023-04-20T00:40:14.830Z,99.90
2023-04-20T00:42:42.345Z,99.90
2023-04-20T00:45:09.706Z,99.90
2023-04-20T00:47:37.439Z,99.90
2023-04-20T00:50:04.822Z,99.90
2023-04-20T00:52:32.584Z,99.90
2023-04-20T00:54:59.689Z,99.90
2023-04-20T00:57:27.852Z,99.90
2023-04-20T00:59:54.715Z,99.90
2023-04-20T01:02:22.755Z,99.90
2023-04-20T01:04:49.900Z,99.90
2023-04-20T01:07:16.837Z,99.90
2023-04-20T01:09:43.792Z,99.90
2023-04-20T01:12:11.746Z,99.90
2023-04-20T01:14:38.632Z,99.90
2023-04-20T01:17:06.111Z,99.90
2023-04-20T01:19:33.598Z,99.90
2023-04-20T01:22:02.472Z,99.90
2023-04-20T01:24:29.562Z,99.90
2023-04-20T01:26:58.567Z,99.90
2023-04-20T01:29:25.502Z,99.90
2023-04-20T01:31:52.651Z,99.90
2023-04-20T01:34:19.619Z,99.90
2023-04-20T01:36:46.526Z,99.90
2023-04-20T01:39:13.429Z,99.90
2023-04-20T01:41:41.077Z,99.90
2023-04-20T01:44:07.920Z,99.90
2023-04-20T01:46:38.647Z,99.90
2023-04-20T01:49:08.057Z,99.90
2023-04-20T01:51:36.307Z,99.90
2023-04-20T01:54:04.040Z,99.90
2023-04-20T01:56:31.325Z,99.90
2023-04-20T01:58:58.758Z,99.90
2023-04-20T02:01:27.089Z,99.90
2023-04-20T02:03:54.133Z,99.90
2023-04-20T02:06:21.716Z,99.90
2023-04-20T02:08:48.633Z,99.90
2023-04-20T02:11:15.600Z,99.90
2023-04-20T02:13:42.428Z,99.90
2023-04-20T02:16:09.546Z,99.90
2023-04-20T02:18:37.405Z,99.90
2023-04-20T02:21:04.484Z,99.90
2023-04-20T02:23:31.349Z,99.90
2023-04-20T02:25:58.759Z,99.90
2023-04-20T02:28:25.632Z,99.90
2023-04-20T02:30:52.498Z,99.90
2023-04-20T02:33:21.175Z,99.90
2023-04-20T02:35:48.338Z,99.90
2023-04-20T02:38:15.884Z,99.90
2023-04-20T02:40:42.677Z,99.90
2023-04-20T02:43:10.189Z,99.90
2023-04-20T02:45:38.989Z,99.90
2023-04-20T02:50:59.413Z,99.90
2023-04-20T02:53:30.475Z,99.90
2023-04-20T02:56:13.006Z,99.90
2023-04-20T02:58:44.135Z,99.90
2023-04-20T03:01:21.804Z,99.90
2023-04-20T03:03:51.891Z,99.90
2023-04-20T03:06:19.273Z,99.90
2023-04-20T03:08:52.469Z,99.90
2023-04-20T03:11:49.990Z,99.90
2023-04-20T03:14:31.704Z,99.90
2023-04-20T03:16:59.015Z,99.90
2023-04-20T03:19:26.010Z,99.90
2023-04-20T03:21:52.859Z,99.90
2023-04-20T03:24:19.922Z,99.90
2023-04-20T03:26:46.778Z,99.90
2023-04-20T03:29:16.608Z,99.90
2023-04-20T03:31:44.721Z,99.90
2023-04-20T03:34:11.738Z,99.90
2023-04-20T03:36:39.065Z,99.90
2023-04-20T03:39:05.972Z,99.90
2023-04-20T03:41:32.980Z,99.90
2023-04-20T03:44:00.293Z,99.90
2023-04-20T03:46:27.302Z,99.90
2023-04-20T03:48:54.285Z,99.90
2023-04-20T03:53:48.539Z,99.90
2023-04-20T03:56:15.539Z,99.90
2023-04-20T03:58:43.276Z,99.90
2023-04-20T04:01:17.133Z,99.90
2023-04-20T04:03:47.956Z,99.90
2023-04-20T04:06:15.126Z,99.90
2023-04-20T04:08:41.984Z,99.90
2023-04-20T04:11:08.996Z,99.90
2023-04-20T04:13:35.930Z,99.90
2023-04-20T04:18:33.603Z,99.90
2023-04-20T04:21:06.694Z,99.90
2023-04-20T04:23:35.655Z,99.90
2023-04-20T04:26:26.739Z,99.90
2023-04-20T04:28:53.658Z,99.90
2023-04-20T04:31:21.710Z,99.90
2023-04-20T04:33:49.701Z,99.90
2023-04-20T04:36:30.680Z,99.90
2023-04-20T04:38:59.259Z,99.90
2023-04-20T04:41:27.609Z,99.90
2023-04-20T04:44:03.532Z,99.90
2023-04-20T04:46:32.293Z,99.90
2023-04-20T04:49:02.894Z,99.90
2023-04-20T04:51:29.756Z,99.90
2023-04-20T04:53:56.673Z,99.90
2023-04-20T04:56:23.538Z,99.90
2023-04-20T04:58:50.617Z,99.90
2023-04-20T05:01:17.547Z,99.90
2023-04-20T05:03:44.488Z,99.90
2023-04-20T05:06:11.386Z,99.90
2023-04-20T05:08:38.250Z,99.90
2023-04-20T05:11:05.149Z,99.90
2023-04-20T05:13:31.972Z,99.90
2023-04-20T05:15:58.958Z,99.90
2023-04-20T05:18:25.768Z,99.90
2023-04-20T05:20:52.693Z,99.90
2023-04-20T05:23:19.475Z,99.90
2023-04-20T05:25:46.535Z,99.90
2023-04-20T05:28:13.421Z,99.90
2023-04-20T05:30:40.281Z,99.90
2023-04-20T05:33:07.067Z,99.90
2023-04-20T05:35:34.041Z,99.90
2023-04-20T05:38:02.635Z,99.90
2023-04-20T05:40:29.585Z,99.90
2023-04-20T05:42:56.486Z,99.90
2023-04-20T05:45:23.553Z,99.90
2023-04-20T05:47:57.810Z,99.90
2023-04-20T05:50:26.548Z,99.90
2023-04-20T05:52:54.127Z,99.90
2023-04-20T05:55:22.846Z,99.90
2023-04-20T06:00:17.497Z,99.90
2023-04-20T06:02:44.434Z,99.90
2023-04-20T06:05:11.698Z,99.90
2023-04-20T06:07:39.089Z,99.90
2023-04-20T06:10:07.016Z,99.90
2023-04-20T06:12:33.912Z,99.90
2023-04-20T06:15:00.931Z,99.90
2023-04-20T06:17:27.811Z,99.90
2023-04-20T06:19:54.850Z,99.90
2023-04-20T06:22:21.754Z,99.90
2023-04-20T06:24:48.540Z,99.90
2023-04-20T06:27:16.091Z,99.90
2023-04-20T06:29:42.999Z,99.90
2023-04-20T06:32:09.804Z,99.90
2023-04-20T06:34:36.647Z,99.90
2023-04-20T06:37:05.760Z,99.90
2023-04-20T06:39:32.851Z,99.90
2023-04-20T06:41:59.690Z,99.90
2023-04-20T06:44:27.695Z,99.90
2023-04-20T06:46:54.572Z,99.90
2023-04-20T06:49:21.665Z,99.90
2023-04-20T06:51:48.563Z,99.90
2023-04-20T06:54:15.838Z,99.90
2023-04-20T06:56:42.687Z,99.90
2023-04-20T07:00:00.287Z,99.90
2023-04-20T07:02:27.654Z,99.90
2023-04-20T07:05:01.325Z,99.90
2023-04-20T07:07:28.169Z,99.90
2023-04-20T07:09:54.975Z,99.90
2023-04-20T07:12:21.806Z,99.90
2023-04-20T07:14:57.588Z,99.90
2023-04-20T07:17:28.032Z,99.90
2023-04-20T07:19:55.229Z,99.90
2023-04-20T07:22:22.704Z,99.90
2023-04-20T07:24:49.631Z,99.90
2023-04-20T07:27:16.429Z,99.90
2023-04-20T07:29:43.586Z,99.90
2023-04-20T07:32:10.420Z,99.90
2023-04-20T07:34:37.298Z,99.90
2023-04-20T07:37:04.087Z,99.90
2023-04-20T07:39:31.001Z,99.90
2023-04-20T07:41:57.927Z,99.90
2023-04-20T07:44:24.879Z,99.90
2023-04-20T07:46:51.704Z,99.90
2023-04-20T07:49:18.745Z,99.90
2023-04-20T07:51:45.626Z,99.90
2023-04-20T07:54:12.513Z,99.90
2023-04-20T07:56:39.367Z,99.90
2023-04-20T07:59:06.200Z,99.90
2023-04-20T08:01:33.024Z,99.90
2023-04-20T08:04:00.151Z,99.90
2023-04-20T08:06:27.383Z,99.90
2023-04-20T08:08:54.314Z,99.90
2023-04-20T08:11:21.718Z,99.90
2023-04-20T08:13:48.573Z,99.90
2023-04-20T08:16:15.607Z,99.90
2023-04-20T08:18:42.576Z,99.90
2023-04-20T08:21:09.738Z,99.90
2023-04-20T08:23:36.516Z,99.90
2023-04-20T08:26:04.497Z,99.90
2023-04-20T08:28:33.693Z,99.90
2023-04-20T08:31:01.583Z,99.90
2023-04-20T08:33:28.502Z,99.90
2023-04-20T08:35:55.476Z,99.90
2023-04-20T08:38:32.898Z,99.90
2023-04-20T08:41:01.050Z,99.90
2023-04-20T08:43:27.961Z,99.90
2023-04-20T08:45:59.326Z,99.90
2023-04-20T08:48:27.960Z,99.90
2023-04-20T08:50:55.830Z,99.90
2023-04-20T08:53:22.843Z,99.90
2023-04-20T08:55:50.384Z,99.90
2023-04-20T08:58:18.003Z,99.90
2023-04-20T09:00:49.425Z,99.90
2023-04-20T09:03:16.661Z,99.90
2023-04-20T09:05:45.054Z,99.90
2023-04-20T09:08:38.351Z,99.90
2023-04-20T09:11:05.489Z,99.90
2023-04-20T09:13:32.804Z,99.90
2023-04-20T09:16:13.600Z,99.90
2023-04-20T09:18:40.477Z,99.90
2023-04-20T09:21:10.822Z,99.90
2023-04-20T09:23:37.578Z,99.90
2023-04-20T09:26:04.460Z,99.90
2023-04-20T09:28:41.726Z,99.90
2023-04-20T09:31:19.007Z,99.90
2023-04-20T09:33:55.153Z,99.90
2023-04-20T09:36:21.974Z,99.90
2023-04-20T09:38:49.170Z,99.90
2023-04-20T09:41:18.101Z,99.90
2023-04-20T09:43:45.701Z,99.90
2023-04-20T09:46:12.798Z,99.90
2023-04-20T09:48:39.785Z,99.90
2023-04-20T09:51:07.537Z,99.90
2023-04-20T09:53:34.925Z,99.90
2023-04-20T09:56:02.266Z,99.90
2023-04-20T09:58:32.433Z,99.90
2023-04-20T10:00:59.332Z,99.90
2023-04-20T10:03:26.605Z,99.90
2023-04-20T10:05:55.668Z,99.90
2023-04-20T10:08:24.388Z,99.90
2023-04-20T10:10:52.298Z,99.90
2023-04-20T10:13:20.519Z,99.90
2023-04-20T10:15:47.704Z,99.90
2023-04-20T10:18:23.837Z,99.90
2023-04-20T10:20:52.072Z,99.90
2023-04-20T10:23:20.042Z,99.90
2023-04-20T10:26:01.146Z,99.90
2023-04-20T10:28:41.840Z,99.90
2023-04-20T10:31:13.076Z,99.90
2023-04-20T10:33:54.739Z,99.90
2023-04-20T10:36:31.355Z,99.90
2023-04-20T10:38:58.736Z,99.80
2023-04-20T10:41:25.632Z,99.60
2023-04-20T10:43:52.690Z,99.90
2023-04-20T10:46:22.065Z,99.90
2023-04-20T10:49:01.507Z,99.80
2023-04-20T10:51:28.721Z,99.40
2023-04-20T10:54:08.770Z,99.10
2023-04-20T10:57:03.169Z,99.00
2023-04-20T10:59:29.991Z,99.90
2023-04-20T11:01:59.548Z,99.90
2023-04-20T11:04:33.862Z,97.70
2023-04-20T11:07:09.372Z,98.30
2023-04-20T11:09:38.336Z,97.70
2023-04-20T11:12:07.552Z,96.90
2023-04-20T11:14:38.405Z,96.70
2023-04-20T11:17:06.219Z,97.90
2023-04-20T11:19:34.931Z,97.70
2023-04-20T11:22:03.693Z,97.90
2023-04-20T11:24:32.941Z,97.00
2023-04-20T11:27:01.975Z,96.50
2023-04-20T11:29:39.109Z,96.80
2023-04-20T11:32:08.148Z,97.70
2023-04-20T11:34:36.592Z,97.60
2023-04-20T11:37:07.917Z,97.80
2023-04-20T11:39:34.937Z,97.40
2023-04-20T11:42:02.121Z,97.60
2023-04-20T11:44:29.078Z,97.30
2023-04-20T11:47:00.078Z,97.40
2023-04-20T11:49:29.072Z,96.80
2023-04-20T11:51:56.126Z,96.50
2023-04-20T11:54:24.175Z,97.50
2023-04-20T11:56:51.564Z,96.60
2023-04-20T11:59:20.165Z,96.80
2023-04-20T12:01:48.297Z,96.80
2023-04-20T12:04:16.288Z,96.40
2023-04-20T12:06:44.077Z,96.00
2023-04-20T12:09:10.971Z,96.00
2023-04-20T12:11:37.813Z,96.70
2023-04-20T12:14:05.166Z,96.90
2023-04-20T12:16:32.215Z,96.60
2023-04-20T12:18:59.144Z,95.80
2023-04-20T12:21:26.028Z,95.30
2023-04-20T12:23:52.938Z,95.00
2023-04-20T12:26:19.786Z,95.20
2023-04-20T12:28:46.594Z,95.00
2023-04-20T12:31:13.576Z,94.80
2023-04-20T12:33:40.456Z,94.60
2023-04-20T12:36:07.594Z,95.00
2023-04-20T12:38:34.439Z,95.20
2023-04-20T12:41:01.553Z,95.30
2023-04-20T12:43:29.213Z,95.50
2023-04-20T12:45:56.842Z,95.20
2023-04-20T12:48:23.660Z,94.30
2023-04-20T12:50:51.082Z,94.10
2023-04-20T12:53:18.002Z,93.50
2023-04-20T12:55:44.839Z,93.80
2023-04-20T13:00:53.595Z,93.70
2023-04-20T13:03:20.587Z,93.30
2023-04-20T13:05:47.593Z,93.40
2023-04-20T13:08:14.425Z,94.10
2023-04-20T13:10:44.430Z,93.70
2023-04-20T13:13:11.604Z,94.40
2023-04-20T13:15:39.645Z,94.10
2023-04-20T13:18:07.357Z,94.60
2023-04-20T13:20:34.191Z,93.50
2023-04-20T13:23:01.536Z,93.80
2023-04-20T13:25:29.985Z,93.40
2023-04-20T13:27:56.951Z,93.40
2023-04-20T13:30:24.748Z,93.90
2023-04-20T13:32:52.017Z,93.70
2023-04-20T13:35:19.310Z,93.90
2023-04-20T13:37:46.270Z,94.40
2023-04-20T13:40:13.322Z,93.90
2023-04-20T13:42:40.281Z,94.00
2023-04-20T13:45:07.832Z,93.70
2023-04-20T13:47:34.760Z,94.00
2023-04-20T13:50:03.526Z,94.40
2023-04-20T13:52:30.499Z,94.90
2023-04-20T13:54:57.329Z,94.90
2023-04-20T13:57:24.157Z,94.50
2023-04-20T13:59:51.256Z,94.90
2023-04-20T14:02:18.073Z,94.40
2023-04-20T14:04:45.238Z,95.00
2023-04-20T14:07:12.113Z,95.10
2023-04-20T14:09:38.995Z,95.10
2023-04-20T14:12:05.932Z,94.90
2023-04-20T14:14:32.857Z,95.20
2023-04-20T14:16:59.747Z,95.60
2023-04-20T14:19:26.526Z,95.60
2023-04-20T14:21:53.531Z,95.90
2023-04-20T14:24:20.455Z,96.00
2023-04-20T14:26:47.533Z,95.70
2023-04-20T14:29:14.564Z,95.80
2023-04-20T14:31:41.423Z,95.80
2023-04-20T14:34:09.417Z,95.90
2023-04-20T14:36:36.330Z,95.40
2023-04-20T14:39:03.404Z,95.50
2023-04-20T14:41:32.308Z,95.50
2023-04-20T14:44:00.267Z,95.30
2023-04-20T14:46:27.219Z,95.20
2023-04-20T14:48:54.123Z,95.60
2023-04-20T14:51:21.233Z,95.30
2023-04-20T14:53:48.026Z,95.40
2023-04-20T14:56:14.879Z,95.50
2023-04-20T14:58:42.442Z,95.40
2023-04-20T15:01:09.453Z,95.30
2023-04-20T15:03:36.571Z,95.30
2023-04-20T15:06:03.714Z,95.70
2023-04-20T15:08:30.693Z,95.80
2023-04-20T15:10:57.617Z,96.30
2023-04-20T15:13:24.791Z,96.10
2023-04-20T15:15:54.798Z,96.10
2023-04-20T15:18:22.205Z,95.80
2023-04-20T15:20:52.386Z,96.40
2023-04-20T15:23:19.744Z,96.60
2023-04-20T15:25:46.798Z,96.60
2023-04-20T15:28:14.264Z,96.60
2023-04-20T15:30:41.774Z,96.80
2023-04-20T15:33:08.799Z,96.80
2023-04-20T15:35:35.820Z,96.80
2023-04-20T15:38:03.373Z,96.70
2023-04-20T15:40:30.437Z,96.90
2023-04-20T15:42:57.462Z,96.70
2023-04-20T15:45:24.890Z,96.90
2023-04-20T15:47:51.926Z,97.30
2023-04-20T15:50:18.939Z,97.30
2023-04-20T15:52:49.518Z,97.30
2023-04-20T15:55:17.260Z,97.50
2023-04-20T15:57:44.742Z,97.50
2023-04-20T16:00:12.825Z,98.10
2023-04-20T16:02:41.051Z,98.00
2023-04-20T16:05:09.085Z,98.20
2023-04-20T16:07:35.991Z,98.50
2023-04-20T16:10:03.138Z,98.60
2023-04-20T16:12:30.153Z,98.90
2023-04-20T16:14:57.425Z,99.30
2023-04-20T16:17:24.443Z,99.50
2023-04-20T16:19:51.495Z,99.50
2023-04-20T16:22:18.585Z,99.40
2023-04-20T16:24:45.715Z,99.70
2023-04-20T16:27:12.606Z,99.90
2023-04-20T16:29:39.464Z,99.90
2023-04-20T16:32:06.809Z,99.90
2023-04-20T16:34:33.677Z,99.90
2023-04-20T16:37:00.843Z,99.90
2023-04-20T16:39:27.647Z,99.90
2023-04-20T16:41:54.745Z,99.90
2023-04-20T16:44:21.864Z,99.90
2023-04-20T16:46:52.984Z,99.90
2023-04-20T16:49:19.856Z,99.90
2023-04-20T16:51:47.761Z,99.90
2023-04-20T16:54:14.690Z,99.90
2023-04-20T16:56:41.830Z,99.90
2023-04-20T16:59:08.654Z,99.90
2023-04-20T17:01:35.819Z,99.90
2023-04-20T17:04:02.930Z,99.90
2023-04-20T17:06:29.934Z,99.90
2023-04-20T17:09:01.434Z,99.90
2023-04-20T17:11:28.449Z,99.90
2023-04-20T17:13:55.261Z,99.90
2023-04-20T17:16:22.131Z,99.90
2023-04-20T17:18:49.049Z,99.90
2023-04-20T17:21:15.926Z,99.90
2023-04-20T17:23:42.773Z,99.90
2023-04-20T17:26:09.675Z,99.90
2023-04-20T17:28:36.477Z,99.90
2023-04-20T17:31:03.541Z,99.90
2023-04-20T17:33:30.693Z,99.90
2023-04-20T17:35:58.210Z,99.90
2023-04-20T17:38:24.985Z,99.90
2023-04-20T17:40:51.894Z,99.90
2023-04-20T17:43:18.971Z,99.90
2023-04-20T17:45:50.481Z,99.90
2023-04-20T17:48:17.278Z,99.90
2023-04-20T17:50:48.862Z,99.90
2023-04-20T17:53:15.678Z,99.90
2023-04-20T17:55:42.525Z,99.90
2023-04-20T17:58:09.351Z,99.90
2023-04-20T18:00:36.222Z,99.90
2023-04-20T18:03:03.158Z,99.90
2023-04-20T18:05:30.888Z,99.90
2023-04-20T18:07:57.829Z,99.90
2023-04-20T18:10:24.716Z,99.90
2023-04-20T18:12:51.996Z,99.90
2023-04-20T18:15:18.850Z,99.90
2023-04-20T18:17:45.716Z,99.90
2023-04-20T18:20:12.767Z,99.90
2023-04-20T18:22:39.749Z,99.90
2023-04-20T18:25:06.753Z,99.90
2023-04-20T18:27:33.631Z,99.90
2023-04-20T18:30:00.466Z,99.90
2023-04-20T18:32:27.715Z,99.90
2023-04-20T18:34:55.053Z,99.90
2023-04-20T18:37:21.958Z,99.90
2023-04-20T18:39:49.054Z,99.90
2023-04-20T18:42:16.374Z,99.90
2023-04-20T18:44:43.559Z,99.90
2023-04-20T18:47:10.662Z,99.90
2023-04-20T18:49:37.526Z,99.90
2023-04-20T18:52:04.692Z,99.90
2023-04-20T18:54:31.736Z,99.90
2023-04-20T18:56:58.618Z,99.90
2023-04-20T18:59:26.033Z,99.90
2023-04-20T19:01:53.077Z,99.90
2023-04-20T19:04:21.802Z,99.90
2023-04-20T19:06:49.042Z,99.90
2023-04-20T19:09:16.185Z,99.90
2023-04-20T19:11:43.433Z,99.90
2023-04-20T19:14:11.422Z,99.90
2023-04-20T19:16:38.572Z,99.90
2023-04-20T19:19:05.637Z,99.90
2023-04-20T19:21:32.806Z,99.90
2023-04-20T19:23:59.880Z,99.90
2023-04-20T19:26:27.316Z,99.90
2023-04-20T19:28:54.205Z,99.90
2023-04-20T19:31:21.227Z,99.90
2023-04-20T19:33:48.201Z,99.90
2023-04-20T19:36:15.161Z,99.90
2023-04-20T19:38:42.072Z,99.90
2023-04-20T19:41:09.046Z,99.90
2023-04-20T19:43:36.464Z,99.90
2023-04-20T19:46:04.026Z,99.90
2023-04-20T19:48:31.062Z,99.90
2023-04-20T19:50:59.223Z,99.90
2023-04-20T19:53:27.066Z,99.90
2023-04-20T19:55:53.902Z,99.90
2023-04-20T19:58:20.877Z,99.90
2023-04-20T20:00:47.726Z,99.90
2023-04-20T20:03:17.586Z,99.90
2023-04-20T20:05:44.877Z,99.90
2023-04-20T20:08:11.849Z,99.90
2023-04-20T20:10:38.714Z,99.90
2023-04-20T20:13:06.259Z,99.90
2023-04-20T20:15:33.344Z,99.90
2023-04-20T20:18:00.391Z,99.90
2023-04-20T20:20:30.220Z,99.90
2023-04-20T20:22:57.547Z,99.90
2023-04-20T20:25:25.298Z,99.90
2023-04-20T20:27:52.309Z,99.90
2023-04-20T20:30:20.115Z,99.90
2023-04-20T20:32:47.425Z,99.90
2023-04-20T20:35:14.364Z,99.90
2023-04-20T20:37:41.804Z,99.90
2023-04-20T20:40:15.170Z,99.90
2023-04-20T20:42:42.906Z,99.90
2023-04-20T20:45:12.458Z,99.90
2023-04-20T20:47:41.090Z,99.90
2023-04-20T20:50:09.735Z,99.90
2023-04-20T20:52:36.805Z,99.90
2023-04-20T20:55:04.400Z,99.90
2023-04-20T20:57:31.504Z,99.90
2023-04-20T20:59:58.358Z,99.90
2023-04-20T21:02:25.384Z,99.90
2023-04-20T21:04:52.680Z,99.90
2023-04-20T21:07:19.642Z,99.90
2023-04-20T21:09:46.610Z,99.90
2023-04-20T21:12:13.437Z,99.90
2023-04-20T21:14:40.263Z,99.90
2023-04-20T21:17:07.271Z,99.90
2023-04-20T21:19:34.165Z,99.90
2023-04-20T21:22:01.016Z,99.90
2023-04-20T21:24:27.924Z,99.90
2023-04-20T21:26:54.805Z,99.90
2023-04-20T21:29:21.625Z,99.90
2023-04-20T21:31:48.537Z,99.90
2023-04-20T21:34:15.488Z,99.90
2023-04-20T21:36:42.492Z,99.90
2023-04-20T21:39:09.352Z,99.90
2023-04-20T21:41:36.194Z,99.90
2023-04-20T21:44:03.161Z,99.90
2023-04-20T21:46:30.142Z,99.90
2023-04-20T21:48:57.052Z,99.90
2023-04-20T21:51:23.906Z,99.90
2023-04-20T21:53:50.709Z,99.90
2023-04-20T21:56:18.429Z,99.90
2023-04-20T21:58:45.291Z,99.90
2023-04-20T22:01:12.168Z,99.90
2023-04-20T22:03:39.266Z,99.90
2023-04-20T22:06:07.104Z,99.90
2023-04-20T22:08:34.100Z,99.90
2023-04-20T22:11:00.980Z,99.90
2023-04-20T22:13:27.849Z,99.90
2023-04-20T22:15:54.784Z,99.90
2023-04-20T22:18:22.166Z,99.90
2023-04-20T22:20:49.526Z,99.90
2023-04-20T22:23:16.399Z,99.90
2023-04-20T22:25:43.661Z,99.90
2023-04-20T22:28:11.288Z,99.90
2023-04-20T22:30:38.103Z,99.90
2023-04-20T22:33:05.108Z,99.90
2023-04-20T22:35:31.957Z,99.90
2023-04-20T22:37:59.412Z,99.90
2023-04-20T22:40:27.050Z,99.90
2023-04-20T22:42:53.914Z,99.90
2023-04-20T22:45:21.163Z,99.90
2023-04-20T22:47:48.121Z,99.90
2023-04-20T22:50:15.119Z,99.90
2023-04-20T22:52:42.213Z,99.90
2023-04-20T22:55:10.298Z,99.90
2023-04-20T22:57:37.438Z,99.90
2023-04-20T23:00:10.728Z,99.90
2023-04-20T23:02:38.084Z,99.90
2023-04-20T23:05:05.947Z,99.90
2023-04-20T23:07:33.347Z,99.90
2023-04-20T23:10:00.435Z,99.90
2023-04-20T23:12:29.514Z,99.90
2023-04-20T23:15:00.492Z,99.90
2023-04-20T23:17:28.701Z,99.90
2023-04-20T23:19:56.539Z,99.90
2023-04-20T23:23:19.636Z,99.90
2023-04-20T23:29:47.914Z,99.90
2023-04-20T23:32:14.729Z,99.90
2023-04-20T23:34:41.511Z,99.90
2023-04-20T23:37:08.369Z,99.90
2023-04-20T23:39:38.473Z,99.90
2023-04-20T23:42:05.801Z,99.90
2023-04-20T23:44:32.670Z,99.90
2023-04-20T23:46:59.536Z,99.90
2023-04-20T23:51:53.568Z,99.90
2023-04-20T23:54:20.419Z,99.90
2023-04-20T23:56:47.240Z,99.90
2023-04-20T23:59:14.112Z,99.90
